Time;durP1;ratioP1;P1;durP2;ratioP2;P2;SDS_P1;SDS_P2;PMS_P1;PMS_P2;Temp;Humidity;BMP_temperature;BMP_pressure;BME280_temperature;BME280_humidity;BME280_pressure;Samples;Min_cycle;Max_cycle;Signal;HPM_P1;HPM_P2
2024/01/27 00:01:35;;;;;;;6.22;4.13;;;11.20;70.10;;;;;;20910558;28;20071;-54
2024/01/27 00:11:36;;;;;;;4.47;3.10;;;11.00;70.20;;;;;;20927439;28;20123;-55
2024/01/27 00:21:37;;;;;;;6.47;3.67;;;11.00;70.20;;;;;;20926073;28;20083;-55
2024/01/27 00:31:40;;;;;;;7.57;3.92;;;10.80;70.30;;;;;;20925337;28;20079;-54
2024/01/27 00:41:41;;;;;;;5.50;3.65;;;10.70;70.50;;;;;;20925813;28;20025;-55
2024/01/27 00:51:42;;;;;;;6.95;4.22;;;10.60;70.70;;;;;;20924058;28;20466;-55
2024/01/27 01:01:43;;;;;;;7.05;4.45;;;10.50;70.90;;;;;;20922896;28;20186;-55
2024/01/27 01:11:44;;;;;;;6.90;4.35;;;10.30;71.20;;;;;;20923437;28;20052;-55
2024/01/27 01:21:45;;;;;;;7.93;5.05;;;10.20;71.40;;;;;;20921078;28;20029;-55
2024/01/27 01:31:46;;;;;;;4.80;3.78;;;10.10;71.50;;;;;;20921740;28;20041;-55
2024/01/27 01:41:47;;;;;;;8.88;5.20;;;10.00;71.40;;;;;;20921078;28;20035;-54
2024/01/27 01:51:48;;;;;;;5.70;3.75;;;9.90;71.70;;;;;;20919278;28;20123;-55
2024/01/27 02:01:49;;;;;;;6.80;3.90;;;9.80;71.60;;;;;;20919846;28;20389;-55
2024/01/27 02:11:51;;;;;;;7.68;4.53;;;9.70;71.60;;;;;;20918590;28;20162;-56
2024/01/27 02:21:52;;;;;;;6.40;4.25;;;9.70;71.50;;;;;;20918067;28;20025;-56
2024/01/27 02:31:55;;;;;;;7.43;4.75;;;9.60;71.90;;;;;;20915165;28;20116;-55
2024/01/27 02:41:56;;;;;;;5.22;3.75;;;9.40;71.90;;;;;;20915156;28;20036;-55
2024/01/27 02:51:57;;;;;;;6.35;4.32;;;9.30;72.00;;;;;;20914116;28;20049;-54
2024/01/27 03:01:59;;;;;;;5.55;4.50;;;9.30;72.00;;;;;;20913469;28;20025;-55
2024/01/27 03:11:59;;;;;;;7.30;4.30;;;9.20;72.00;;;;;;20914176;28;20409;-56
2024/01/27 03:22:01;;;;;;;5.88;3.38;;;9.20;71.70;;;;;;20912367;28;20029;-55
2024/01/27 03:32:04;;;;;;;7.50;3.67;;;9.10;71.70;;;;;;20913021;28;20045;-56
2024/01/27 03:42:05;;;;;;;5.20;3.72;;;9.00;71.60;;;;;;20912605;28;20339;-56
2024/01/27 03:52:06;;;;;;;5.22;3.45;;;8.90;71.80;;;;;;20911348;28;20417;-55
2024/01/27 04:02:07;;;;;;;5.57;3.80;;;8.80;72.00;;;;;;20911927;28;20108;-55
2024/01/27 04:12:08;;;;;;;4.72;3.17;;;8.80;71.80;;;;;;20910413;28;20044;-56
2024/01/27 04:22:09;;;;;;;4.03;2.85;;;8.70;71.90;;;;;;20910098;28;20032;-56
2024/01/27 04:32:13;;;;;;;5.82;2.90;;;8.70;72.00;;;;;;20909492;28;20033;-56
2024/01/27 04:42:14;;;;;;;3.95;3.10;;;8.70;72.10;;;;;;20910543;28;20083;-55
2024/01/27 04:52:15;;;;;;;5.75;3.25;;;8.70;72.00;;;;;;20915489;28;20049;-55
2024/01/27 05:02:17;;;;;;;4.22;3.35;;;8.70;72.00;;;;;;20924461;28;20032;-56
2024/01/27 05:12:18;;;;;;;3.10;2.50;;;8.60;72.00;;;;;;20922377;28;20039;-55
2024/01/27 05:22:19;;;;;;;5.63;3.08;;;8.60;72.00;;;;;;20922118;28;20052;-56
2024/01/27 05:32:20;;;;;;;6.03;3.03;;;8.60;71.80;;;;;;20922433;28;20507;-56
2024/01/27 05:42:21;;;;;;;6.25;3.15;;;8.40;71.80;;;;;;20921406;28;20029;-55
2024/01/27 05:52:23;;;;;;;4.35;3.10;;;8.40;71.80;;;;;;20919674;28;20482;-56
2024/01/27 06:02:24;;;;;;;4.47;2.90;;;8.40;71.80;;;;;;20917785;28;20029;-56
2024/01/27 06:12:25;;;;;;;5.35;2.90;;;8.30;71.70;;;;;;20917799;28;20043;-55
2024/01/27 06:22:26;;;;;;;3.38;2.75;;;8.20;71.70;;;;;;20917052;28;20049;-56
2024/01/27 06:32:28;;;;;;;5.15;3.42;;;8.20;71.70;;;;;;20917612;28;20116;-57
2024/01/27 06:42:30;;;;;;;4.03;2.85;;;8.10;71.60;;;;;;20916817;28;20056;-56
2024/01/27 06:52:31;;;;;;;6.30;3.03;;;8.10;71.70;;;;;;20914411;28;20111;-57
2024/01/27 07:02:32;;;;;;;6.00;3.22;;;8.00;71.70;;;;;;20913936;28;20037;-55
2024/01/27 07:12:34;;;;;;;4.50;3.03;;;7.90;71.90;;;;;;20913025;28;20043;-56
2024/01/27 07:22:35;;;;;;;4.00;3.13;;;8.00;71.70;;;;;;20914115;28;20032;-57
2024/01/27 07:32:37;;;;;;;7.07;3.08;;;7.90;71.70;;;;;;20912288;28;20072;-58
2024/01/27 07:42:38;;;;;;;4.78;3.20;;;7.80;71.70;;;;;;20913092;28;20532;-55
2024/01/27 07:52:39;;;;;;;7.20;3.97;;;7.90;71.80;;;;;;20910572;28;20045;-56
2024/01/27 08:02:40;;;;;;;4.45;2.88;;;7.90;71.80;;;;;;20910536;28;20032;-56
2024/01/27 08:12:41;;;;;;;7.03;3.95;;;8.00;71.60;;;;;;20910345;28;20029;-58
2024/01/27 08:22:42;;;;;;;5.53;2.88;;;8.10;71.20;;;;;;20909256;28;20021;-56
2024/01/27 08:32:45;;;;;;;5.72;3.15;;;8.30;70.70;;;;;;20925445;28;20059;-57
2024/01/27 08:42:46;;;;;;;4.93;2.90;;;8.30;70.40;;;;;;20923603;28;20040;-56
2024/01/27 08:52:48;;;;;;;8.57;4.18;;;8.50;70.20;;;;;;20923332;28;20041;-56
2024/01/27 09:02:49;;;;;;;6.18;4.22;;;8.70;70.00;;;;;;20922144;28;20090;-56
2024/01/27 09:12:50;;;;;;;6.75;4.88;;;8.90;69.80;;;;;;20921955;28;20029;-56
2024/01/27 09:22:52;;;;;;;6.53;5.00;;;9.30;68.80;;;;;;20922181;28;20454;-56
2024/01/27 09:32:53;;;;;;;7.45;4.78;;;9.50;68.40;;;;;;20921464;28;20044;-57
2024/01/27 09:42:59;;;;;;;7.03;4.60;;;9.70;67.90;;;;;;20918860;28;20032;-56
2024/01/27 09:53:00;;;;;;;11.82;5.35;;;10.00;66.90;;;;;;20918282;28;20059;-56
2024/01/27 10:03:04;;;;;;;5.72;3.88;;;10.40;65.90;;;;;;20918781;28;20044;-55
2024/01/27 10:13:06;;;;;;;5.80;3.80;;;10.70;64.70;;;;;;20918364;28;20032;-54
2024/01/27 10:23:11;;;;;;;8.48;4.50;;;11.00;63.80;;;;;;20916182;28;20128;-56
2024/01/27 10:33:14;;;;;;;9.57;4.53;;;11.40;63.20;;;;;;20916746;28;20485;-54
2024/01/27 10:43:17;;;;;;;10.98;4.97;;;11.80;63.00;;;;;;20915401;28;20040;-54
2024/01/27 10:53:28;;;;;;;9.77;5.40;;;12.20;62.80;;;;;;20914157;28;20053;-58
2024/01/27 11:03:30;;;;;;;7.28;4.60;;;12.50;63.40;;;;;;20913745;28;20052;-55
2024/01/27 11:13:33;;;;;;;7.70;6.82;;;12.90;61.70;;;;;;20912810;28;20048;-55
2024/01/27 11:23:37;;;;;;;8.13;5.22;;;13.30;60.70;;;;;;20913237;28;20482;-56
2024/01/27 11:33:43;;;;;;;;;;;13.60;59.70;;;;;;20911819;28;20124;-56
2024/01/27 11:43:54;;;;;;;11.13;5.93;;;14.10;61.90;;;;;;20908367;28;19916;-57
2024/01/27 11:53:57;;;;;;;8.63;6.50;;;14.30;58.60;;;;;;20908627;28;20049;-56
2024/01/27 12:03:58;;;;;;;9.55;6.07;;;14.60;57.80;;;;;;20911852;28;20033;-56
2024/01/27 12:13:59;;;;;;;13.57;6.30;;;14.80;56.80;;;;;;20925756;28;20040;-58
2024/01/27 12:24:02;;;;;;;9.98;6.20;;;15.10;55.50;;;;;;20927237;28;20029;-56
2024/01/27 12:34:05;;;;;;;15.18;6.20;;;15.40;54.40;;;;;;20925089;28;20033;-57
2024/01/27 12:44:10;;;;;;;6.68;4.03;;;15.70;52.90;;;;;;20923540;28;20091;-57
2024/01/27 12:54:12;;;;;;;7.07;3.72;;;16.20;51.00;;;;;;20922376;28;20053;-56
2024/01/27 13:04:15;;;;;;;5.30;2.63;;;16.40;49.30;;;;;;20923546;28;20037;-59
2024/01/27 13:14:20;;;;;;;5.10;2.85;;;16.60;47.10;;;;;;20921210;28;20091;-57
2024/01/27 13:24:24;;;;;;;6.95;3.45;;;16.70;45.50;;;;;;20922211;28;20445;-56
2024/01/27 13:34:30;;;;;;;4.30;2.00;;;16.80;44.70;;;;;;20920107;28;20235;-57
2024/01/27 13:44:35;;;;;;;5.18;2.20;;;17.00;43.60;;;;;;20921004;28;20028;-57
2024/01/27 13:54:37;;;;;;;3.15;2.08;;;17.00;43.90;;;;;;20918360;28;20056;-57
2024/01/27 14:04:39;;;;;;;5.18;2.65;;;17.10;44.00;;;;;;20919143;28;20108;-56
2024/01/27 14:14:41;;;;;;;4.90;2.22;;;17.30;43.80;;;;;;20917297;28;20052;-56
2024/01/27 14:24:44;;;;;;;3.10;2.10;;;17.20;44.00;;;;;;20917586;28;20451;-55
2024/01/27 14:34:47;;;;;;;8.02;2.45;;;17.30;43.90;;;;;;20916690;28;20049;-56
2024/01/27 14:44:55;;;;;;;4.45;2.63;;;17.30;44.90;;;;;;20916478;28;20367;-57
2024/01/27 14:54:56;;;;;;;4.57;2.65;;;17.30;45.30;;;;;;20915357;28;20516;-57
2024/01/27 15:04:57;;;;;;;5.05;1.70;;;17.40;45.40;;;;;;20915192;28;20033;-58
2024/01/27 15:14:57;;;;;;;3.05;1.92;;;17.30;45.30;;;;;;20906535;28;20047;-58
2024/01/27 15:24:58;;;;;;;4.78;2.00;;;17.30;45.20;;;;;;20912315;28;20037;-57
2024/01/27 15:35:01;;;;;;;6.00;2.05;;;17.20;45.50;;;;;;20912576;28;20438;-57
2024/01/27 15:45:04;;;;;;;7.45;2.63;;;17.20;45.80;;;;;;20910556;28;20036;-57
2024/01/27 15:55:06;;;;;;;4.95;2.28;;;17.20;45.20;;;;;;20910154;28;20052;-58
2024/01/27 16:05:07;;;;;;;3.15;2.22;;;17.20;45.30;;;;;;20910355;28;20040;-56
2024/01/27 16:15:09;;;;;;;4.85;2.15;;;17.20;45.90;;;;;;20911008;28;20109;-57
2024/01/27 16:25:10;;;;;;;3.85;2.33;;;17.20;45.70;;;;;;20910737;28;20423;-57
2024/01/27 16:35:12;;;;;;;5.40;3.22;;;17.20;46.20;;;;;;20909109;28;20076;-56
2024/01/27 16:45:13;;;;;;;9.48;4.22;;;17.10;46.90;;;;;;20912421;28;20037;-58
2024/01/27 16:55:16;;;;;;;6.13;4.32;;;16.90;47.70;;;;;;20923928;28;20123;-58
2024/01/27 17:05:17;;;;;;;16.23;10.55;;;16.80;48.60;;;;;;20923085;28;20037;-57
2024/01/27 17:15:21;;;;;;;17.60;7.78;;;16.60;50.20;;;;;;20922069;28;20169;-58
2024/01/27 17:25:23;;;;;;;17.30;11.27;;;16.40;51.50;;;;;;20922083;28;20025;-56
2024/01/27 17:35:26;;;;;;;12.18;7.95;;;16.20;52.30;;;;;;20921053;28;20069;-57
2024/01/27 17:45:29;;;;;;;110.43;90.13;;;16.00;53.40;;;;;;20919245;28;20032;-56
2024/01/27 17:55:32;;;;;;;14.80;7.70;;;15.70;54.90;;;;;;20918002;28;20053;-56
2024/01/27 18:05:35;;;;;;;11.98;8.93;;;15.40;55.60;;;;;;20919301;28;20104;-56
2024/01/27 18:15:36;;;;;;;24.10;12.38;;;15.30;56.10;;;;;;20917397;28;20032;-57
2024/01/27 18:25:39;;;;;;;20.67;9.70;;;15.10;57.20;;;;;;20916055;28;20025;-57
2024/01/27 18:35:40;;;;;;;11.65;7.40;;;14.90;57.60;;;;;;20914862;28;20053;-58
2024/01/27 18:45:43;;;;;;;10.55;5.20;;;14.80;58.80;;;;;;20916431;28;20065;-56
2024/01/27 18:55:46;;;;;;;11.38;4.38;;;14.60;60.00;;;;;;20915325;28;20049;-58
2024/01/27 19:05:47;;;;;;;8.10;4.35;;;14.40;61.00;;;;;;20916147;28;20032;-59
2024/01/27 19:15:52;;;;;;;7.45;3.95;;;14.20;62.00;;;;;;20913441;28;20052;-57
2024/01/27 19:25:54;;;;;;;6.32;3.90;;;14.10;62.70;;;;;;20914299;28;20052;-56
2024/01/27 19:35:55;;;;;;;7.75;3.85;;;13.80;63.80;;;;;;20913347;28;20095;-58
2024/01/27 19:45:56;;;;;;;8.55;3.70;;;13.60;64.20;;;;;;20911497;28;20029;-57
2024/01/27 19:55:59;;;;;;;6.53;3.97;;;13.40;64.70;;;;;;20911420;28;20041;-57
2024/01/27 20:06:00;;;;;;;8.43;3.97;;;13.30;65.00;;;;;;20912504;28;20448;-56
2024/01/27 20:16:02;;;;;;;6.65;4.45;;;13.20;64.90;;;;;;20911083;28;20035;-57
2024/01/27 20:26:03;;;;;;;9.68;5.05;;;13.20;65.40;;;;;;20923634;28;20389;-59
2024/01/27 20:36:04;;;;;;;8.60;5.10;;;13.10;65.70;;;;;;20927021;28;20029;-56
2024/01/27 20:46:07;;;;;;;7.32;5.00;;;12.80;66.40;;;;;;20924906;28;20140;-56
2024/01/27 20:56:09;;;;;;;6.97;4.63;;;12.70;66.60;;;;;;20924302;28;20033;-56
2024/01/27 21:06:10;;;;;;;8.13;5.38;;;12.60;66.70;;;;;;20923131;28;20501;-56
2024/01/27 21:16:11;;;;;;;7.75;5.28;;;12.40;67.30;;;;;;20923973;28;20505;-55
2024/01/27 21:26:12;;;;;;;8.35;5.70;;;12.30;67.30;;;;;;20923144;28;20021;-56
2024/01/27 21:36:13;;;;;;;9.05;5.28;;;12.30;67.20;;;;;;20920737;28;20044;-56
2024/01/27 21:46:14;;;;;;;8.13;5.93;;;12.20;67.40;;;;;;20919927;28;20048;-57
2024/01/27 21:56:16;;;;;;;11.20;5.70;;;12.00;67.60;;;;;;20918926;28;20045;-55
2024/01/27 22:06:16;;;;;;;10.60;5.82;;;11.90;67.90;;;;;;20918253;28;20059;-57
2024/01/27 22:16:17;;;;;;;11.40;6.93;;;11.70;68.10;;;;;;20917724;28;20068;-56
2024/01/27 22:26:19;;;;;;;8.80;6.10;;;11.70;68.10;;;;;;20916553;28;20025;-56
2024/01/27 22:36:20;;;;;;;11.63;6.25;;;11.50;68.50;;;;;;20915831;28;20037;-57
2024/01/27 22:46:24;;;;;;;14.77;7.45;;;11.30;68.80;;;;;;20914327;28;20052;-58
2024/01/27 22:56:25;;;;;;;7.90;6.05;;;11.20;69.30;;;;;;20915150;28;20037;-56
2024/01/27 23:06:26;;;;;;;13.10;8.55;;;11.00;69.50;;;;;;20913375;28;20492;-56
2024/01/27 23:16:27;;;;;;;10.40;6.53;;;10.80;69.80;;;;;;20914291;28;20044;-56
2024/01/27 23:26:28;;;;;;;11.70;6.88;;;10.70;70.00;;;;;;20913325;28;20100;-55
2024/01/27 23:36:29;;;;;;;11.70;6.57;;;10.80;70.00;;;;;;20911885;28;20482;-56
2024/01/27 23:46:30;;;;;;;10.23;6.72;;;10.80;69.80;;;;;;20912463;28;20056;-56
2024/01/27 23:56:33;;;;;;;9.48;6.13;;;10.70;70.10;;;;;;20922463;28;20048;-55
